Antares — DFJQ — position and weather

sailwx.info

Track history (hours):
 
Tides and Currents Weather Stations Pressure Air Temp Water Temp Dewpoint Dewpoint Depression Visibility Wind Speed Wind Dir Waves Ship Positions

Antares

Last reported at 2015-Jul-03 07:32 UTC. Time now 2015-Jul-03 07:51 UTC.
Position N 53°52' E 008°43'.

Length 79 m; draft 5 m.

Type: Ship. MMSI: 218777000.

Date/timePositionNaut miles runAvg speedWind from/ knotsBaromVisibWave heightAir tempDewpointWater temp
2015-Jul-03 07:32N 53°52' E 008°43'0 0.0
2015-Jul-03 06:32N 53°52' E 008°43'0 0.0
2015-Jul-03 05:29N 53°52' E 008°43'0 0.0
2015-Jul-03 04:32N 53°52' E 008°43'0 0.0
2015-Jul-03 03:32N 53°52' E 008°43'0 0.0
2015-Jul-03 02:32N 53°52' E 008°43'0 0.0
2015-Jul-03 01:32N 53°52' E 008°43'0 0.0
2015-Jul-03 00:32N 53°52' E 008°43'0 0.0
2015-Jul-02 23:32N 53°52' E 008°43'0 0.0
2015-Jul-02 22:32N 53°52' E 008°43'0 0.0
2015-Jul-02 21:29N 53°52' E 008°43'0 0.0
2015-Jul-02 20:29N 53°52' E 008°43'0 0.0
2015-Jul-02 19:32N 53°52' E 008°43'0 0.0
2015-Jul-02 18:32N 53°52' E 008°43'0 0.0
2015-Jul-02 17:32N 53°52' E 008°43'0 0.0
2015-Jul-02 16:32N 53°52' E 008°43'0 0.0
2015-Jul-02 15:32N 53°52' E 008°43'0 0.0
2015-Jul-02 14:29N 53°52' E 008°43'0 0.0
2015-Jul-02 13:32N 53°52' E 008°43'0 0.0
2015-Jul-02 12:32N 53°52' E 008°43'0 0.0
2015-Jul-02 11:32N 53°52' E 008°43'0 0.0
2015-Jul-02 10:17N 53°52' E 008°43'0 0.0
2015-Jul-02 09:32N 53°52' E 008°43'0 0.0
2015-Jul-02 08:29N 53°52' E 008°43'0 0.0
2015-Jul-02 07:32N 53°52' E 008°43'0 0.0
2015-Jul-02 06:26N 53°52' E 008°43'0 0.0
2015-Jul-02 05:26N 53°52' E 008°43'0 0.0
2015-Jul-02 04:26N 53°52' E 008°43'0 0.0
2015-Jul-02 03:32N 53°52' E 008°43'0 0.0
2015-Jul-02 02:26N 53°52' E 008°43'0 0.0
2015-Jul-02 01:33N 53°52' E 008°43'2 2.3
2015-Jul-02 00:33N 53°54' E 008°41'8 7.9
2015-Jul-01 23:33N 53°58' E 008°30'43 7.2
2015-Jul-01 17:33N 53°52' E 007°17'9 9.0
2015-Jul-01 16:33N 53°50' E 007°02'9 8.4
2015-Jul-01 15:32N 53°48' E 006°48'8 8.2
2015-Jul-01 14:34N 53°46' E 006°35'7 7.2
2015-Jul-01 13:33N 53°42' E 006°25'1111.3
2015-Jul-01 12:34N 53°34' E 006°39'9 9.2
2015-Jul-01 11:32N 53°27' E 006°49'0 0.0
2015-Jul-01 10:32N 53°27' E 006°49'0 0.0
2015-Jul-01 09:26N 53°27' E 006°49'0 0.0
2015-Jul-01 08:34N 53°27' E 006°49'0 0.1
2015-Jul-01 07:33N 53°27' E 006°49'4 4.3
2015-Jul-01 06:33N 53°25' E 006°56'7 7.1
2015-Jul-01 05:34N 53°19' E 007°03'5 5.3
2015-Jul-01 04:33N 53°20' E 007°11'0 0.4
2015-Jul-01 03:31N 53°20' E 007°12'0 0.0
2015-Jul-01 02:31N 53°20' E 007°12'0 0.0
2015-Jul-01 01:31N 53°20' E 007°12'0 0.0
2015-Jul-01 00:31N 53°20' E 007°12'0 0.0
2015-Jun-30 23:31N 53°20' E 007°12'0 0.0
2015-Jun-30 22:19N 53°20' E 007°12'0 0.0
2015-Jun-30 21:31N 53°20' E 007°12'0 0.0
2015-Jun-30 20:31N 53°20' E 007°12'0 0.0
2015-Jun-30 19:31N 53°20' E 007°12'0 0.0
2015-Jun-30 18:31N 53°20' E 007°12'0 0.0
2015-Jun-30 17:31N 53°20' E 007°12'0 0.0
2015-Jun-30 16:31N 53°20' E 007°12'0 0.0
2015-Jun-30 15:31N 53°20' E 007°12'0 0.0
2015-Jun-30 14:28N 53°20' E 007°12'0 0.0
2015-Jun-30 13:31N 53°20' E 007°12'0 0.0
2015-Jun-30 12:31N 53°20' E 007°12'0 0.0
2015-Jun-30 11:31N 53°20' E 007°12'0 0.0
2015-Jun-30 10:25N 53°20' E 007°12'0 0.0
2015-Jun-30 09:31N 53°20' E 007°12'0 0.0
2015-Jun-30 08:31N 53°20' E 007°12'0 0.0
2015-Jun-30 07:28N 53°20' E 007°12'0 0.0
2015-Jun-30 06:31N 53°20' E 007°12'0 0.1
2015-Jun-30 05:31N 53°20' E 007°12'0 0.0
2015-Jun-30 04:25N 53°20' E 007°12'0 0.0
2015-Jun-30 03:28N 53°20' E 007°12'0 0.0
2015-Jun-30 02:31N 53°20' E 007°12'0 0.0
2015-Jun-30 01:31N 53°20' E 007°12'0 0.0
2015-Jun-30 00:31N 53°20' E 007°12'0 0.3
2015-Jun-29 23:34N 53°20' E 007°12'3 2.6
2015-Jun-29 22:34N 53°20' E 007°07'8 7.5
2015-Jun-29 21:33N 53°24' E 006°57'1010.1
2015-Jun-29 20:33N 53°31' E 006°45'1010.4
2015-Jun-29 19:33N 53°37' E 006°30'7 7.3
2015-Jun-29 18:33N 53°37' E 006°18'6 6.3
2015-Jun-29 17:33N 53°38' E 006°07'1010.2
2015-Jun-29 16:33N 53°38' E 005°50'1111.1
2015-Jun-29 15:33N 53°34' E 005°33'1111.3
2015-Jun-29 14:34N 53°31' E 005°15'1110.8
2015-Jun-29 13:33N 53°27' E 004°58'1010.4
2015-Jun-29 12:33N 53°22' E 004°42'1010.3
2015-Jun-29 11:33N 53°13' E 004°34'10 9.7
2015-Jun-29 10:34N 53°04' E 004°26'9 9.3
2015-Jun-29 09:33N 52°56' E 004°20'9 9.1
2015-Jun-29 08:33N 52°48' E 004°13'9 9.2
2015-Jun-29 07:33N 52°41' E 004°04'9 9.0
2015-Jun-29 06:33N 52°33' E 003°55'9 8.5
2015-Jun-29 05:33N 52°25' E 003°52'9 9.0
2015-Jun-29 04:33N 52°16' E 003°52'10 9.6
2015-Jun-29 03:33N 52°07' E 003°54'8 8.1
2015-Jun-29 02:33N 51°60' E 004°02'1010.3
2015-Jun-29 01:33N 51°54' E 004°16'2 2.4
2015-Jun-29 00:33N 51°53' E 004°19'0 0.0
2015-Jun-28 23:29N 51°53' E 004°19'0 0.0
2015-Jun-28 22:23N 51°53' E 004°19'0 0.0
2015-Jun-28 21:32N 51°53' E 004°19'0 0.0
2015-Jun-28 20:33N 51°53' E 004°19'0 0.0
2015-Jun-28 19:32N 51°53' E 004°19'0 0.0
2015-Jun-28 18:32N 51°53' E 004°19'0 0.0
2015-Jun-28 17:32N 51°53' E 004°19'0 0.0
2015-Jun-28 16:32N 51°53' E 004°19'0 0.0
2015-Jun-28 15:26N 51°53' E 004°19'0 0.0
2015-Jun-28 14:32N 51°53' E 004°19'0 0.0
2015-Jun-28 13:29N 51°53' E 004°19'0 0.0
2015-Jun-28 12:32N 51°53' E 004°19'0 0.0
2015-Jun-28 11:32N 51°53' E 004°19'0 0.0
2015-Jun-28 10:29N 51°53' E 004°19'0 0.0
2015-Jun-28 09:32N 51°53' E 004°19'0 0.0
2015-Jun-28 08:32N 51°53' E 004°19'0 0.0
2015-Jun-28 07:32N 51°53' E 004°19'0 0.0
2015-Jun-28 06:29N 51°53' E 004°19'0 0.0
2015-Jun-28 05:32N 51°53' E 004°19'0 0.0
2015-Jun-28 04:32N 51°53' E 004°19'0 0.0
2015-Jun-28 03:33N 51°53' E 004°19'0 0.0
2015-Jun-28 02:32N 51°53' E 004°19'0 0.0
2015-Jun-28 01:32N 51°53' E 004°19'0 0.0
2015-Jun-28 00:29N 51°53' E 004°19'0 0.0
2015-Jun-27 23:32N 51°53' E 004°19'0 0.0
2015-Jun-27 22:32N 51°53' E 004°19'0 0.0
2015-Jun-27 21:32N 51°53' E 004°19'0 0.0
2015-Jun-27 20:32N 51°53' E 004°19'0 0.0
2015-Jun-27 19:32N 51°53' E 004°19'0 0.0
2015-Jun-27 18:32N 51°53' E 004°19'0 0.0
2015-Jun-27 17:26N 51°53' E 004°19'0 0.0
2015-Jun-27 16:26N 51°53' E 004°19'0 0.0
2015-Jun-27 15:32N 51°53' E 004°19'0 0.0
2015-Jun-27 14:32N 51°53' E 004°19'0 0.1
2015-Jun-27 13:33N 51°53' E 004°19'7 7.2
2015-Jun-27 12:33N 51°57' E 004°10'1010.3
2015-Jun-27 11:33N 52°01' E 003°54'10 9.7
2015-Jun-27 10:33N 52°05' E 003°40'7 3.3
2015-Jun-27 08:32N 52°09' E 003°31'6611.0
2015-Jun-27 02:33N 52°49' E 002°04'1111.5
2015-Jun-27 01:33N 52°57' E 001°51'1111.0
2015-Jun-27 00:33N 53°03' E 001°36'1010.4
2015-Jun-26 23:33N 53°10' E 001°22'40 9.6
2015-Jun-26 19:25N 53°29' E 000°24'8 8.7
2015-Jun-26 18:33N 53°33' E 000°13'1211.7
2015-Jun-26 17:33N 53°37' W 000°05'3 3.3
2015-Jun-26 16:33N 53°38' W 000°11'0 0.0
2015-Jun-26 15:33N 53°38' W 000°11'0 0.0
2015-Jun-26 14:33N 53°38' W 000°11'0 0.0
2015-Jun-26 13:33N 53°38' W 000°11'0 0.0
2015-Jun-26 12:33N 53°38' W 000°11'0 0.0
2015-Jun-26 11:33N 53°38' W 000°11'0 0.0
2015-Jun-26 10:33N 53°38' W 000°11'0 0.0
2015-Jun-26 09:30N 53°38' W 000°11'0 0.0
2015-Jun-26 08:32N 53°38' W 000°11'0 0.0
2015-Jun-26 07:33N 53°38' W 000°11'0 0.0
2015-Jun-26 06:33N 53°38' W 000°11'0 0.0
2015-Jun-26 05:30N 53°38' W 000°11'0 0.0
2015-Jun-26 04:33N 53°38' W 000°11'0 0.0
2015-Jun-26 03:33N 53°38' W 000°11'0 0.0
2015-Jun-26 02:32N 53°38' W 000°11'0 0.0
2015-Jun-26 01:32N 53°38' W 000°11'0 0.0
2015-Jun-26 00:33N 53°38' W 000°11'0 0.2
2015-Jun-25 23:33N 53°38' W 000°11'7 7.0
2015-Jun-25 22:33N 53°35' E 000°00'10 9.6
2015-Jun-25 21:33N 53°33' E 000°16'388 7.7
2015-Jun-23 19:32N 57°32' E 009°15'4 8.9
2015-Jun-23 19:02N 57°34' E 009°23'  
Track history (hours):
 
Tides and Currents Weather Stations Pressure Air Temp Water Temp Dewpoint Dewpoint Depression Visibility Wind Speed Wind Dir Waves Ship Positions

Antares

Last reported at 2015-Jul-03 07:32 UTC. Time now 2015-Jul-03 07:51 UTC.
Position N 53°52' E 008°43'.

Length 79 m; draft 5 m.

Type: Ship. MMSI: 218777000.

Date/timePositionNaut miles runAvg speedWind from/ knotsBaromVisibWave heightAir tempDewpointWater temp
2015-Jul-03 07:32N 53°52' E 008°43'0 0.0
2015-Jul-03 06:32N 53°52' E 008°43'0 0.0
2015-Jul-03 05:29N 53°52' E 008°43'0 0.0
2015-Jul-03 04:32N 53°52' E 008°43'0 0.0
2015-Jul-03 03:32N 53°52' E 008°43'0 0.0
2015-Jul-03 02:32N 53°52' E 008°43'0 0.0
2015-Jul-03 01:32N 53°52' E 008°43'0 0.0
2015-Jul-03 00:32N 53°52' E 008°43'0 0.0
2015-Jul-02 23:32N 53°52' E 008°43'0 0.0
2015-Jul-02 22:32N 53°52' E 008°43'0 0.0
2015-Jul-02 21:29N 53°52' E 008°43'0 0.0
2015-Jul-02 20:29N 53°52' E 008°43'0 0.0
2015-Jul-02 19:32N 53°52' E 008°43'0 0.0
2015-Jul-02 18:32N 53°52' E 008°43'0 0.0
2015-Jul-02 17:32N 53°52' E 008°43'0 0.0
2015-Jul-02 16:32N 53°52' E 008°43'0 0.0
2015-Jul-02 15:32N 53°52' E 008°43'0 0.0
2015-Jul-02 14:29N 53°52' E 008°43'0 0.0
2015-Jul-02 13:32N 53°52' E 008°43'0 0.0
2015-Jul-02 12:32N 53°52' E 008°43'0 0.0
2015-Jul-02 11:32N 53°52' E 008°43'0 0.0
2015-Jul-02 10:17N 53°52' E 008°43'0 0.0
2015-Jul-02 09:32N 53°52' E 008°43'0 0.0
2015-Jul-02 08:29N 53°52' E 008°43'0 0.0
2015-Jul-02 07:32N 53°52' E 008°43'0 0.0
2015-Jul-02 06:26N 53°52' E 008°43'0 0.0
2015-Jul-02 05:26N 53°52' E 008°43'0 0.0
2015-Jul-02 04:26N 53°52' E 008°43'0 0.0
2015-Jul-02 03:32N 53°52' E 008°43'0 0.0
2015-Jul-02 02:26N 53°52' E 008°43'0 0.0
2015-Jul-02 01:33N 53°52' E 008°43'2 2.3
2015-Jul-02 00:33N 53°54' E 008°41'8 7.9
2015-Jul-01 23:33N 53°58' E 008°30'43 7.2
2015-Jul-01 17:33N 53°52' E 007°17'9 9.0
2015-Jul-01 16:33N 53°50' E 007°02'9 8.4
2015-Jul-01 15:32N 53°48' E 006°48'8 8.2
2015-Jul-01 14:34N 53°46' E 006°35'7 7.2
2015-Jul-01 13:33N 53°42' E 006°25'1111.3
2015-Jul-01 12:34N 53°34' E 006°39'9 9.2
2015-Jul-01 11:32N 53°27' E 006°49'0 0.0
2015-Jul-01 10:32N 53°27' E 006°49'0 0.0
2015-Jul-01 09:26N 53°27' E 006°49'0 0.0
2015-Jul-01 08:34N 53°27' E 006°49'0 0.1
2015-Jul-01 07:33N 53°27' E 006°49'4 4.3
2015-Jul-01 06:33N 53°25' E 006°56'7 7.1
2015-Jul-01 05:34N 53°19' E 007°03'5 5.3
2015-Jul-01 04:33N 53°20' E 007°11'0 0.4
2015-Jul-01 03:31N 53°20' E 007°12'0 0.0
2015-Jul-01 02:31N 53°20' E 007°12'0 0.0
2015-Jul-01 01:31N 53°20' E 007°12'0 0.0
2015-Jul-01 00:31N 53°20' E 007°12'0 0.0
2015-Jun-30 23:31N 53°20' E 007°12'0 0.0
2015-Jun-30 22:19N 53°20' E 007°12'0 0.0
2015-Jun-30 21:31N 53°20' E 007°12'0 0.0
2015-Jun-30 20:31N 53°20' E 007°12'0 0.0
2015-Jun-30 19:31N 53°20' E 007°12'0 0.0
2015-Jun-30 18:31N 53°20' E 007°12'0 0.0
2015-Jun-30 17:31N 53°20' E 007°12'0 0.0
2015-Jun-30 16:31N 53°20' E 007°12'0 0.0
2015-Jun-30 15:31N 53°20' E 007°12'0 0.0
2015-Jun-30 14:28N 53°20' E 007°12'0 0.0
2015-Jun-30 13:31N 53°20' E 007°12'0 0.0
2015-Jun-30 12:31N 53°20' E 007°12'0 0.0
2015-Jun-30 11:31N 53°20' E 007°12'0 0.0
2015-Jun-30 10:25N 53°20' E 007°12'0 0.0
2015-Jun-30 09:31N 53°20' E 007°12'0 0.0
2015-Jun-30 08:31N 53°20' E 007°12'0 0.0
2015-Jun-30 07:28N 53°20' E 007°12'0 0.0
2015-Jun-30 06:31N 53°20' E 007°12'0 0.1
2015-Jun-30 05:31N 53°20' E 007°12'0 0.0
2015-Jun-30 04:25N 53°20' E 007°12'0 0.0
2015-Jun-30 03:28N 53°20' E 007°12'0 0.0
2015-Jun-30 02:31N 53°20' E 007°12'0 0.0
2015-Jun-30 01:31N 53°20' E 007°12'0 0.0
2015-Jun-30 00:31N 53°20' E 007°12'0 0.3
2015-Jun-29 23:34N 53°20' E 007°12'3 2.6
2015-Jun-29 22:34N 53°20' E 007°07'8 7.5
2015-Jun-29 21:33N 53°24' E 006°57'1010.1
2015-Jun-29 20:33N 53°31' E 006°45'1010.4
2015-Jun-29 19:33N 53°37' E 006°30'7 7.3
2015-Jun-29 18:33N 53°37' E 006°18'6 6.3
2015-Jun-29 17:33N 53°38' E 006°07'1010.2
2015-Jun-29 16:33N 53°38' E 005°50'1111.1
2015-Jun-29 15:33N 53°34' E 005°33'1111.3
2015-Jun-29 14:34N 53°31' E 005°15'1110.8
2015-Jun-29 13:33N 53°27' E 004°58'1010.4
2015-Jun-29 12:33N 53°22' E 004°42'1010.3
2015-Jun-29 11:33N 53°13' E 004°34'10 9.7
2015-Jun-29 10:34N 53°04' E 004°26'9 9.3
2015-Jun-29 09:33N 52°56' E 004°20'9 9.1
2015-Jun-29 08:33N 52°48' E 004°13'9 9.2
2015-Jun-29 07:33N 52°41' E 004°04'9 9.0
2015-Jun-29 06:33N 52°33' E 003°55'9 8.5
2015-Jun-29 05:33N 52°25' E 003°52'9 9.0
2015-Jun-29 04:33N 52°16' E 003°52'10 9.6
2015-Jun-29 03:33N 52°07' E 003°54'8 8.1
2015-Jun-29 02:33N 51°60' E 004°02'1010.3
2015-Jun-29 01:33N 51°54' E 004°16'2 2.4
2015-Jun-29 00:33N 51°53' E 004°19'0 0.0
2015-Jun-28 23:29N 51°53' E 004°19'0 0.0
2015-Jun-28 22:23N 51°53' E 004°19'0 0.0
2015-Jun-28 21:32N 51°53' E 004°19'0 0.0
2015-Jun-28 20:33N 51°53' E 004°19'0 0.0
2015-Jun-28 19:32N 51°53' E 004°19'0 0.0
2015-Jun-28 18:32N 51°53' E 004°19'0 0.0
2015-Jun-28 17:32N 51°53' E 004°19'0 0.0
2015-Jun-28 16:32N 51°53' E 004°19'0 0.0
2015-Jun-28 15:26N 51°53' E 004°19'0 0.0
2015-Jun-28 14:32N 51°53' E 004°19'0 0.0
2015-Jun-28 13:29N 51°53' E 004°19'0 0.0
2015-Jun-28 12:32N 51°53' E 004°19'0 0.0
2015-Jun-28 11:32N 51°53' E 004°19'0 0.0
2015-Jun-28 10:29N 51°53' E 004°19'0 0.0
2015-Jun-28 09:32N 51°53' E 004°19'0 0.0
2015-Jun-28 08:32N 51°53' E 004°19'0 0.0
2015-Jun-28 07:32N 51°53' E 004°19'0 0.0
2015-Jun-28 06:29N 51°53' E 004°19'0 0.0
2015-Jun-28 05:32N 51°53' E 004°19'0 0.0
2015-Jun-28 04:32N 51°53' E 004°19'0 0.0
2015-Jun-28 03:33N 51°53' E 004°19'0 0.0
2015-Jun-28 02:32N 51°53' E 004°19'0 0.0
2015-Jun-28 01:32N 51°53' E 004°19'0 0.0
2015-Jun-28 00:29N 51°53' E 004°19'0 0.0
2015-Jun-27 23:32N 51°53' E 004°19'0 0.0
2015-Jun-27 22:32N 51°53' E 004°19'0 0.0
2015-Jun-27 21:32N 51°53' E 004°19'0 0.0
2015-Jun-27 20:32N 51°53' E 004°19'0 0.0
2015-Jun-27 19:32N 51°53' E 004°19'0 0.0
2015-Jun-27 18:32N 51°53' E 004°19'0 0.0
2015-Jun-27 17:26N 51°53' E 004°19'0 0.0
2015-Jun-27 16:26N 51°53' E 004°19'0 0.0
2015-Jun-27 15:32N 51°53' E 004°19'0 0.0
2015-Jun-27 14:32N 51°53' E 004°19'0 0.1
2015-Jun-27 13:33N 51°53' E 004°19'7 7.2
2015-Jun-27 12:33N 51°57' E 004°10'1010.3
2015-Jun-27 11:33N 52°01' E 003°54'10 9.7
2015-Jun-27 10:33N 52°05' E 003°40'7 3.3
2015-Jun-27 08:32N 52°09' E 003°31'6611.0
2015-Jun-27 02:33N 52°49' E 002°04'1111.5
2015-Jun-27 01:33N 52°57' E 001°51'1111.0
2015-Jun-27 00:33N 53°03' E 001°36'1010.4
2015-Jun-26 23:33N 53°10' E 001°22'40 9.6
2015-Jun-26 19:25N 53°29' E 000°24'8 8.7
2015-Jun-26 18:33N 53°33' E 000°13'1211.7
2015-Jun-26 17:33N 53°37' W 000°05'3 3.3
2015-Jun-26 16:33N 53°38' W 000°11'0 0.0
2015-Jun-26 15:33N 53°38' W 000°11'0 0.0
2015-Jun-26 14:33N 53°38' W 000°11'0 0.0
2015-Jun-26 13:33N 53°38' W 000°11'0 0.0
2015-Jun-26 12:33N 53°38' W 000°11'0 0.0
2015-Jun-26 11:33N 53°38' W 000°11'0 0.0
2015-Jun-26 10:33N 53°38' W 000°11'0 0.0
2015-Jun-26 09:30N 53°38' W 000°11'0 0.0
2015-Jun-26 08:32N 53°38' W 000°11'0 0.0
2015-Jun-26 07:33N 53°38' W 000°11'0 0.0
2015-Jun-26 06:33N 53°38' W 000°11'0 0.0
2015-Jun-26 05:30N 53°38' W 000°11'0 0.0
2015-Jun-26 04:33N 53°38' W 000°11'0 0.0
2015-Jun-26 03:33N 53°38' W 000°11'0 0.0
2015-Jun-26 02:32N 53°38' W 000°11'0 0.0
2015-Jun-26 01:32N 53°38' W 000°11'0 0.0
2015-Jun-26 00:33N 53°38' W 000°11'0 0.2
2015-Jun-25 23:33N 53°38' W 000°11'7 7.0
2015-Jun-25 22:33N 53°35' E 000°00'10 9.6
2015-Jun-25 21:33N 53°33' E 000°16'388 7.7
2015-Jun-23 19:32N 57°32' E 009°15'4 8.9
2015-Jun-23 19:02N 57°34' E 009°23'  

Dump ship's entire track history